ADDS METAR Data INFO
IDs: Format: Raw Decoded Include TAF

Data at: 1414 UTC 12 Dec 2017

KLMO 121355Z AUTO 25003KT 10SM CLR M04/M10 A3036 RMK AO2 T10441096
KLMO 121335Z AUTO 00000KT 10SM CLR M05/M10 A3036 RMK AO2 T10501103
KLMO 121315Z AUTO 26003KT 10SM CLR M05/M10 A3037 RMK AO2 T10461103
KLMO 121235Z AUTO 00000KT 10SM CLR M04/M10 A3037 RMK AO2 T10441096
KLMO 121155Z AUTO 00000KT 10SM CLR M04/M11 A3037 RMK AO2 T10441108
KLMO 121135Z AUTO 28003KT 10SM CLR M04/M11 A3038 RMK AO2 T10451110
KLMO 121115Z AUTO 00000KT 10SM CLR M04/M10 A3038 RMK AO2 T10401101
KLMO 121055Z AUTO 00000KT 10SM CLR M03/M10 A3039 RMK AO2 T10281104
KLMO 121035Z AUTO 00000KT 10SM CLR M03/M10 A3040 RMK AO2 T10281104
KLMO 121015Z AUTO 26004KT 10SM CLR M01/M11 A3041 RMK AO2 T10111112
KLMO 120955Z AUTO 28004KT 10SM CLR M02/M11 A3041 RMK AO2 T10171110
KLMO 120915Z AUTO 28004KT 10SM CLR M01/M11 A3043 RMK AO2 T10101106
KLMO 120835Z AUTO 26003KT 10SM CLR M03/M11 A3043 RMK AO2 T10301106
KLMO 120815Z AUTO 28003KT 10SM CLR M01/M11 A3044 RMK AO2 T10091107
KLMO 120755Z AUTO 27003KT 10SM CLR M01/M11 A3044 RMK AO2 T10101109
KLMO 120735Z AUTO 00000KT 10SM CLR M03/M11 A3045 RMK AO2 T10271107
KLMO 120715Z AUTO 00000KT 10SM CLR M03/M11 A3046 RMK AO2 T10331113
KLMO 120655Z AUTO 00000KT 10SM CLR M02/M11 A3047 RMK AO2 T10241115
KLMO 120635Z AUTO 24004KT 10SM CLR 00/M12 A3047 RMK AO2 T00001117
KLMO 120615Z AUTO 27004KT 10SM CLR M01/M11 A3048 RMK AO2 T10081114
KLMO 120555Z AUTO 31004KT 10SM CLR M02/M10 A3048 RMK AO2 T10231101
KLMO 120535Z AUTO 24004KT 10SM CLR M01/M10 A3048 RMK AO2 T10141105
KLMO 120515Z AUTO 00000KT 10SM CLR M03/M11 A3048 RMK AO2 T10281109
KLMO 120455Z AUTO 24003KT 10SM CLR M03/M11 A3048 RMK AO2 T10281113
KLMO 120435Z AUTO 00000KT 10SM CLR M02/M12 A3048 RMK AO2 T10231116
KLMO 120415Z AUTO 34004KT 10SM CLR M02/M11 A3048 RMK AO2 T10251114
KLMO 120355Z AUTO 33003KT 10SM CLR M02/M11 A3047 RMK AO2 T10181114
KLMO 120335Z AUTO 35003KT 10SM CLR M02/M11 A3046 RMK AO2 T10181111
KLMO 120315Z AUTO 00000KT 10SM CLR M01/M11 A3045 RMK AO2 T10081107
KLMO 120255Z AUTO 00000KT 10SM CLR 01/M11 A3045 RMK AO2 T00081106
KLMO 120235Z AUTO 00000KT 10SM CLR M01/M12 A3044 RMK AO2 T10061120
KLMO 120215Z AUTO 23005KT 10SM CLR 00/M12 A3043 RMK AO2 T00001119
KLMO 120155Z AUTO 00000KT 10SM CLR 02/M13 A3044 RMK AO2 T00221128
KLMO 120135Z AUTO 00000KT 10SM CLR 00/M12 A3044 RMK AO2 T10011120
KLMO 120115Z AUTO 26003KT 10SM CLR 01/M12 A3043 RMK AO2 T00091125
KLMO 120055Z AUTO 30005KT 10SM CLR 02/M12 A3043 RMK AO2 T00151122
KLMO 120035Z AUTO 24004KT 10SM CLR 04/M12 A3042 RMK AO2 T00361119
KLMO 120015Z AUTO 26007KT 10SM CLR 04/M13 A3042 RMK AO2 T00401130
KLMO 112355Z AUTO 00000KT 10SM CLR 07/M13 A3041 RMK AO2 T00671130
KLMO 112335Z AUTO 00000KT 10SM CLR 11/M14 A3040 RMK AO2 T01091140
KLMO 112315Z AUTO 00000KT 10SM CLR 13/M14 A3039 RMK AO2 T01281144
KLMO 112255Z AUTO 00000KT 10SM CLR 15/M15 A3038 RMK AO2 T01451146
KLMO 112235Z AUTO 00000KT 10SM CLR 15/M14 A3038 RMK AO2 T01491141
KLMO 112215Z AUTO 00000KT 10SM CLR 15/M14 A3036 RMK AO2 T01511140
KLMO 112155Z AUTO 00000KT 10SM CLR 15/M14 A3036 RMK AO2 T01521139
KLMO 112135Z AUTO 00000KT 10SM CLR 15/M14 A3036 RMK AO2 T01511138
KLMO 112115Z AUTO 00000KT 10SM CLR 15/M14 A3035 RMK AO2 T01521136
KLMO 112055Z AUTO 00000KT 10SM CLR 15/M14 A3035 RMK AO2 T01461138
KLMO 112035Z AUTO 00000KT 10SM CLR 15/M14 A3034 RMK AO2 T01471139
KLMO 112015Z AUTO 21004KT 10SM CLR 14/M14 A3034 RMK AO2 T01441137
KLMO 111955Z AUTO 00000KT 10SM CLR 14/M13 A3034 RMK AO2 T01391134
KLMO 111935Z AUTO 12004KT 10SM CLR 14/M14 A3034 RMK AO2 T01351142
KLMO 111915Z AUTO 08004KT 10SM CLR 14/M13 A3035 RMK AO2 T01401132
KLMO 111855Z AUTO 12003KT 10SM CLR 13/M10 A3036 RMK AO2 T01341099
KLMO 111835Z AUTO 10003KT 10SM CLR 13/M10 A3036 RMK AO2 T01271101
KLMO 111815Z AUTO 11005KT 10SM CLR 13/M12 A3036 RMK AO2 T01291117
KLMO 111755Z AUTO 11004KT 10SM CLR 14/M13 A3036 RMK AO2 T01361126
KLMO 111735Z AUTO 07003KT 10SM CLR 13/M12 A3036 RMK AO2 T01311124
KLMO 111715Z AUTO 00000KT 10SM CLR 11/M12 A3036 RMK AO2 T01091119
KLMO 111655Z AUTO 00000KT 10SM CLR 09/M11 A3036 RMK AO2 T00891111
KLMO 111635Z AUTO 00000KT 10SM CLR 06/M11 A3035 RMK AO2 T00621108
KLMO 111615Z AUTO 00000KT 10SM CLR 04/M11 A3035 RMK AO2 T00421109
KLMO 111555Z AUTO 00000KT 10SM CLR 03/M11 A3035 RMK AO2 T00271109
KLMO 111515Z AUTO 00000KT 10SM CLR M02/M10 A3034 RMK AO2 T10171103
KLMO 111455Z AUTO 16003KT 10SM CLR M03/M11 A3034 RMK AO2 T10341113
KLMO 111435Z AUTO 22004KT 10SM CLR M05/M12 A3033 RMK AO2 T10471120
KLMO 111415Z AUTO 00000KT 10SM CLR M04/M12 A3032 RMK AO2 T10411125
KLMO 111355Z AUTO 19003KT 10SM CLR M05/M13 A3032 RMK AO2 T10501129
KLMO 111335Z AUTO 00000KT 10SM CLR M05/M12 A3031 RMK AO2 T10541124
KLMO 111315Z AUTO 00000KT 10SM CLR M04/M11 A3031 RMK AO2 T10421111
KLMO 111255Z AUTO 00000KT 10SM CLR M05/M13 A3030 RMK AO2 T10481132
KLMO 111235Z AUTO 25003KT 10SM CLR M05/M12 A3030 RMK AO2 T10471119
KLMO 111215Z AUTO 00000KT 10SM CLR M03/M13 A3030 RMK AO2 T10341128
KLMO 111155Z AUTO 00000KT 10SM CLR M04/M12 A3031 RMK AO2 T10451122
KLMO 111135Z AUTO 23004KT 10SM CLR M03/M12 A3031 RMK AO2 T10351124
KLMO 111115Z AUTO 24003KT 10SM CLR M01/M14 A3031 RMK AO2 T10131136
KLMO 111055Z AUTO 25003KT 10SM CLR M02/M13 A3032 RMK AO2 T10171135
KLMO 111035Z AUTO 28005KT 10SM CLR M01/M14 A3032 RMK AO2 T10131137
KLMO 111015Z AUTO 00000KT 10SM CLR M02/M13 A3033 RMK AO2 T10251129
KLMO 110935Z AUTO 25003KT 10SM CLR M05/M13 A3034 RMK AO2 T10501131
KLMO 110915Z AUTO 00000KT 10SM CLR M04/M13 A3035 RMK AO2 T10451127
KLMO 110855Z AUTO 25003KT 10SM CLR M03/M12 A3036 RMK AO2 T10341120
KLMO 110835Z AUTO 16003KT 10SM CLR M03/M12 A3035 RMK AO2 T10331121
KLMO 110815Z AUTO 24003KT 10SM CLR M01/M12 A3035 RMK AO2 T10081121
KLMO 110755Z AUTO 00000KT 10SM CLR M03/M12 A3034 RMK AO2 T10291118
KLMO 110735Z AUTO 00000KT 10SM CLR M03/M12 A3034 RMK AO2 T10351119
KLMO 110715Z AUTO 27005KT 10SM CLR M01/M12 A3034 RMK AO2 T10151117
KLMO 110655Z AUTO 00000KT 10SM CLR M02/M11 A3033 RMK AO2 T10231108
KLMO 110555Z AUTO 03004KT 10SM CLR M04/M12 A3032 RMK AO2 T10361118
KLMO 110535Z AUTO 21004KT 10SM CLR M01/M12 A3032 RMK AO2 T10131120
KLMO 110515Z AUTO 20005KT 10SM CLR M02/M12 A3032 RMK AO2 T10191121
KLMO 110455Z AUTO 00000KT 10SM CLR M01/M12 A3033 RMK AO2 T10151120
KLMO 110435Z AUTO 32003KT 10SM CLR M01/M13 A3033 RMK AO2 T10091134
KLMO 110415Z AUTO 00000KT 10SM CLR M02/M12 A3032 RMK AO2 T10161120
KLMO 110355Z AUTO 21003KT 10SM CLR M02/M13 A3032 RMK AO2 T10161129
KLMO 110335Z AUTO 30004KT 10SM CLR 00/M13 A3032 RMK AO2 T10051129
KLMO 110255Z AUTO 27004KT 10SM CLR M01/M12 A3032 RMK AO2 T10101120
KLMO 110235Z AUTO 27003KT 10SM CLR 00/M13 A3032 RMK AO2 T10051128
KLMO 110215Z AUTO 28003KT 10SM CLR M01/M12 A3033 RMK AO2 T10131120